createdAt,value
2023-03-19T00:02:26.324Z,653.13
2023-03-19T00:04:54.275Z,1459.97
2023-03-19T00:07:22.304Z,34.50
2023-03-19T00:09:50.318Z,630.90
2023-03-19T00:12:18.269Z,593.23
2023-03-19T00:14:46.219Z,39.47
2023-03-19T00:17:14.253Z,324.83
2023-03-19T00:19:43.897Z,914.23
2023-03-19T00:22:11.861Z,154.70
2023-03-19T00:24:39.827Z,213.47
2023-03-19T00:27:08.072Z,590.60
2023-03-19T00:29:36.358Z,50.03
2023-03-19T00:32:04.552Z,342.10
2023-03-19T00:34:32.512Z,49.53
2023-03-19T00:37:02.029Z,372.40
2023-03-19T00:39:30.045Z,380.77
2023-03-19T00:41:58.086Z,376.00
2023-03-19T00:44:26.118Z,779.17
2023-03-19T00:46:54.086Z,25.73
2023-03-19T00:49:22.363Z,104.73
2023-03-19T00:51:50.413Z,274.50
2023-03-19T00:54:19.752Z,117.73
2023-03-19T00:56:47.688Z,121.60
2023-03-19T00:59:15.623Z,249.67
2023-03-19T01:01:43.614Z,287.07
2023-03-19T01:04:13.048Z,527.30
2023-03-19T01:06:41.033Z,264.90
2023-03-19T01:09:08.982Z,148.90
2023-03-19T01:11:38.514Z,774.73
2023-03-19T01:14:06.473Z,30.80
2023-03-19T01:16:35.675Z,158.73
2023-03-19T01:19:04.631Z,532.67
2023-03-19T01:21:32.563Z,118.87
2023-03-19T01:24:00.616Z,301.40
2023-03-19T01:26:28.762Z,491.63
2023-03-19T01:28:59.486Z,544.70
2023-03-19T01:31:27.607Z,206.47
2023-03-19T01:33:55.804Z,166.60
2023-03-19T01:36:23.764Z,307.33
2023-03-19T01:38:51.928Z,59.83
2023-03-19T01:41:19.908Z,462.13
2023-03-19T01:43:47.861Z,1353.57
2023-03-19T01:46:27.134Z,291.80
2023-03-19T01:48:59.893Z,329.90
2023-03-19T01:51:30.589Z,202.60
2023-03-19T01:54:01.726Z,857.70
2023-03-19T01:56:33.423Z,583.70
2023-03-19T01:59:06.508Z,1680.70
2023-03-19T02:01:39.081Z,185.77
2023-03-19T02:04:08.174Z,1127.50
2023-03-19T02:06:37.721Z,387.67
2023-03-19T02:09:06.270Z,1146.50
2023-03-19T02:11:34.772Z,550.50
2023-03-19T02:14:02.792Z,191.60
2023-03-19T02:16:31.835Z,672.83
2023-03-19T02:19:01.484Z,555.67
2023-03-19T02:21:30.000Z,561.07
2023-03-19T02:24:04.429Z,481.47
2023-03-19T02:26:34.109Z,55.43
2023-03-19T02:29:02.068Z,498.27
2023-03-19T02:31:30.062Z,492.33
2023-03-19T02:34:00.254Z,164.97
2023-03-19T02:36:33.411Z,449.63
2023-03-19T02:39:05.601Z,757.23
2023-03-19T02:41:37.216Z,165.97
2023-03-19T02:44:05.855Z,1999.90
2023-03-19T02:46:33.862Z,24.40
2023-03-19T02:49:01.873Z,1999.90
2023-03-19T02:51:29.823Z,1605.40
2023-03-19T02:53:57.824Z,1102.80
2023-03-19T02:56:26.226Z,160.83
2023-03-19T02:58:55.686Z,875.13
2023-03-19T03:01:24.631Z,779.40
2023-03-19T03:03:52.636Z,575.37
2023-03-19T03:06:20.572Z,370.83
2023-03-19T03:08:48.536Z,695.77
2023-03-19T03:11:16.564Z,878.90
2023-03-19T03:13:44.639Z,675.43
2023-03-19T03:16:15.556Z,1999.90
2023-03-19T03:18:43.536Z,795.50
2023-03-19T03:21:11.753Z,57.37
2023-03-19T03:23:39.698Z,315.93
2023-03-19T03:26:08.262Z,51.00
2023-03-19T03:28:36.283Z,241.33
2023-03-19T03:31:04.454Z,1677.47
2023-03-19T03:33:33.983Z,987.00
2023-03-19T03:36:01.923Z,220.37
2023-03-19T03:38:29.861Z,208.43
2023-03-19T03:40:57.797Z,195.43
2023-03-19T03:43:26.581Z,366.23
2023-03-19T03:45:54.851Z,649.27
2023-03-19T03:48:23.192Z,455.60
2023-03-19T03:50:52.709Z,784.67
2023-03-19T03:53:20.852Z,116.07
2023-03-19T03:55:48.849Z,894.43
2023-03-19T03:58:16.904Z,105.53
2023-03-19T04:00:45.028Z,746.03
2023-03-19T04:03:13.296Z,356.23
2023-03-19T04:05:41.782Z,1289.13
2023-03-19T04:08:12.149Z,126.40
2023-03-19T04:10:42.358Z,410.70
2023-03-19T04:13:10.445Z,585.40
2023-03-19T04:15:38.610Z,787.37
2023-03-19T04:18:06.622Z,42.53
2023-03-19T04:20:34.887Z,183.97
2023-03-19T04:23:03.403Z,647.60
2023-03-19T04:25:32.763Z,96.23
2023-03-19T04:28:00.698Z,176.87
2023-03-19T04:30:29.041Z,331.77
2023-03-19T04:32:57.134Z,378.33
2023-03-19T04:35:25.249Z,152.63
2023-03-19T04:37:53.195Z,272.20
2023-03-19T04:40:21.197Z,83.97
2023-03-19T04:42:50.480Z,131.10
2023-03-19T04:45:19.458Z,98.47
2023-03-19T04:47:47.385Z,1504.37
2023-03-19T04:50:15.376Z,1276.23
2023-03-19T04:52:43.320Z,207.13
2023-03-19T04:55:11.872Z,696.03
2023-03-19T04:57:39.847Z,696.70
2023-03-19T05:00:10.973Z,211.13
2023-03-19T05:02:39.416Z,221.57
2023-03-19T05:05:07.804Z,122.57
2023-03-19T05:07:36.395Z,653.10
2023-03-19T05:10:04.741Z,459.63
2023-03-19T05:12:32.884Z,224.67
2023-03-19T05:15:00.831Z,361.07
2023-03-19T05:17:30.110Z,84.33
2023-03-19T05:19:58.435Z,449.73
2023-03-19T05:22:26.957Z,594.40
2023-03-19T05:24:54.940Z,370.77
2023-03-19T05:27:23.008Z,39.67
2023-03-19T05:29:50.965Z,293.27
2023-03-19T05:32:19.046Z,117.70
2023-03-19T05:34:48.377Z,356.83
2023-03-19T05:37:17.095Z,34.60
2023-03-19T05:39:45.265Z,300.77
2023-03-19T05:42:14.769Z,791.97
2023-03-19T05:44:43.155Z,88.80
2023-03-19T05:47:12.166Z,130.43
2023-03-19T05:49:40.101Z,69.47
2023-03-19T05:52:09.736Z,211.90
2023-03-19T05:54:37.660Z,88.83
2023-03-19T05:57:05.982Z,53.63
2023-03-19T05:59:34.130Z,407.30
2023-03-19T06:02:02.083Z,704.50
2023-03-19T06:04:30.010Z,44.97
2023-03-19T06:06:57.979Z,416.80
2023-03-19T06:09:27.270Z,100.80
2023-03-19T06:11:55.225Z,544.23
2023-03-19T06:14:23.337Z,375.73
2023-03-19T06:16:51.483Z,46.57
2023-03-19T06:19:19.472Z,675.63
2023-03-19T06:21:47.495Z,73.30
2023-03-19T06:24:15.484Z,547.93
2023-03-19T06:26:44.851Z,198.20
2023-03-19T06:29:12.804Z,998.40
2023-03-19T06:31:41.783Z,74.47
2023-03-19T06:34:10.266Z,1144.33
2023-03-19T06:36:38.318Z,829.80
2023-03-19T06:39:06.269Z,249.17
2023-03-19T06:41:34.465Z,476.50
2023-03-19T06:44:04.280Z,1250.30
2023-03-19T06:46:32.372Z,1999.90
2023-03-19T06:49:00.387Z,1151.27
2023-03-19T06:51:28.487Z,1360.83
2023-03-19T06:53:56.684Z,1999.90
2023-03-19T06:56:25.050Z,1999.90
2023-03-19T06:58:52.994Z,1211.53
2023-03-19T07:01:23.216Z,1774.13
2023-03-19T07:03:51.281Z,1999.90
2023-03-19T07:06:19.261Z,1236.90
2023-03-19T07:08:47.234Z,1999.90
2023-03-19T07:11:16.598Z,1999.90
2023-03-19T07:13:44.602Z,1999.90
2023-03-19T07:16:12.576Z,1999.90
2023-03-19T07:18:41.884Z,1999.90
2023-03-19T07:21:09.984Z,1999.90
2023-03-19T07:23:37.995Z,1999.90
2023-03-19T07:26:06.402Z,1999.90
2023-03-19T07:28:34.542Z,1999.90
2023-03-19T07:31:02.511Z,1999.90
2023-03-19T07:33:30.471Z,1999.90
2023-03-19T07:35:59.806Z,1999.90
2023-03-19T07:38:27.916Z,1999.90
2023-03-19T07:41:02.504Z,1999.90
2023-03-19T07:43:31.273Z,1999.90
2023-03-19T07:45:59.522Z,1999.90
2023-03-19T07:48:27.504Z,1999.90
2023-03-19T07:50:55.599Z,1999.90
2023-03-19T07:53:25.281Z,1999.90
2023-03-19T07:55:53.241Z,1999.90
2023-03-19T07:58:21.179Z,1999.90
2023-03-19T08:00:49.157Z,1999.90
2023-03-19T08:03:17.381Z,1999.90
2023-03-19T08:05:45.337Z,1999.90
2023-03-19T08:08:13.271Z,1999.90
2023-03-19T08:10:42.812Z,1999.90
2023-03-19T08:13:10.827Z,1999.90
2023-03-19T08:15:38.776Z,1999.90
2023-03-19T08:18:07.665Z,1999.90
2023-03-19T08:20:35.979Z,1999.90
2023-03-19T08:23:04.484Z,1999.90
2023-03-19T08:25:33.264Z,1999.90
2023-03-19T08:28:02.786Z,1999.90
2023-03-19T08:30:32.347Z,1999.90
2023-03-19T08:33:01.160Z,1999.90
2023-03-19T08:35:30.093Z,1999.90
2023-03-19T08:37:58.786Z,1999.90
2023-03-19T08:40:27.123Z,1999.90
2023-03-19T08:42:56.043Z,1999.90
2023-03-19T08:45:25.404Z,1999.90
2023-03-19T08:47:53.743Z,1999.90
2023-03-19T08:50:22.029Z,1999.90
2023-03-19T08:52:50.181Z,1999.90
2023-03-19T08:55:18.269Z,1999.90
2023-03-19T08:57:46.251Z,1999.90
2023-03-19T09:00:15.473Z,1999.90
2023-03-19T09:02:44.792Z,1999.90
2023-03-19T09:05:12.761Z,1999.90
2023-03-19T09:07:40.933Z,1999.90
2023-03-19T09:10:09.849Z,1999.90
2023-03-19T09:12:37.823Z,1999.90
2023-03-19T09:15:06.780Z,1999.90
2023-03-19T09:17:34.742Z,1999.90
2023-03-19T09:20:06.186Z,1999.90
2023-03-19T09:22:34.168Z,1999.90
2023-03-19T09:25:02.102Z,1999.90
2023-03-19T09:27:30.055Z,1999.90
2023-03-19T09:29:58.575Z,1999.90
2023-03-19T09:32:26.623Z,1999.90
2023-03-19T09:34:54.580Z,1999.90
2023-03-19T09:37:23.887Z,1999.90
2023-03-19T09:39:51.959Z,1999.90
2023-03-19T09:42:44.304Z,1999.90
2023-03-19T09:45:16.033Z,1999.90
2023-03-19T09:47:46.622Z,1999.90
2023-03-19T09:50:16.888Z,1999.90
2023-03-19T09:52:48.007Z,1999.90
2023-03-19T09:55:29.142Z,1999.90
2023-03-19T09:57:58.897Z,1999.90
2023-03-19T10:00:29.298Z,1999.90
2023-03-19T10:03:03.855Z,1999.90
2023-03-19T10:05:43.493Z,1999.90
2023-03-19T10:08:33.794Z,1999.90
2023-03-19T10:11:18.904Z,1999.90
2023-03-19T10:14:00.524Z,1999.90
2023-03-19T10:16:31.254Z,1999.90
2023-03-19T10:19:01.768Z,1999.90
2023-03-19T10:21:35.288Z,1999.90
2023-03-19T10:24:08.008Z,1999.90
2023-03-19T10:26:36.564Z,1999.90
2023-03-19T10:29:08.539Z,1999.90
2023-03-19T10:31:44.921Z,1999.90
2023-03-19T10:34:28.798Z,1999.90
2023-03-19T10:37:01.793Z,1999.90
2023-03-19T10:39:33.893Z,1999.90
2023-03-19T10:42:19.697Z,1999.90
2023-03-19T10:44:51.702Z,1999.90
2023-03-19T10:47:22.667Z,1999.90
2023-03-19T10:49:51.890Z,1999.90
2023-03-19T10:52:23.564Z,1999.90
2023-03-19T10:54:57.195Z,1999.90
2023-03-19T10:57:27.890Z,1999.90
2023-03-19T10:59:56.368Z,1999.90
2023-03-19T11:02:31.026Z,1999.90
2023-03-19T11:05:20.239Z,1999.90
2023-03-19T11:07:51.693Z,1999.90
2023-03-19T11:10:22.203Z,1999.90
2023-03-19T11:12:57.746Z,1999.90
2023-03-19T11:15:29.835Z,1999.90
2023-03-19T11:17:59.386Z,1999.90
2023-03-19T11:20:31.733Z,1999.90
2023-03-19T11:23:03.172Z,1999.90
2023-03-19T11:25:37.558Z,1999.90
2023-03-19T11:28:09.857Z,1999.90
2023-03-19T11:30:50.485Z,1999.90
2023-03-19T11:33:48.988Z,1999.90
2023-03-19T11:36:23.902Z,1999.90
2023-03-19T11:39:01.488Z,1999.90
2023-03-19T11:41:43.173Z,1999.90
2023-03-19T11:44:17.625Z,1999.90
2023-03-19T11:46:54.317Z,1999.90
2023-03-19T11:49:43.407Z,1999.90
2023-03-19T11:52:19.417Z,1999.90
2023-03-19T11:55:01.632Z,1999.90
2023-03-19T11:57:46.493Z,1999.90
2023-03-19T12:00:26.783Z,1999.90
2023-03-19T12:03:37.151Z,1999.90
2023-03-19T12:06:12.390Z,1999.90
2023-03-19T12:08:46.478Z,1999.90
2023-03-19T12:11:19.885Z,1999.90
2023-03-19T12:14:03.817Z,1999.90
2023-03-19T12:16:46.503Z,1999.90
2023-03-19T12:19:46.003Z,1999.90
2023-03-19T12:22:22.938Z,1999.90
2023-03-19T12:25:09.980Z,1999.90
2023-03-19T12:27:43.784Z,1999.90
2023-03-19T12:30:23.475Z,1999.90
2023-03-19T12:33:11.214Z,1999.90
2023-03-19T12:35:42.011Z,1999.90
2023-03-19T12:38:14.725Z,1999.90
2023-03-19T12:40:46.431Z,1999.90
2023-03-19T12:43:19.939Z,1999.90
2023-03-19T12:45:57.858Z,1999.90
2023-03-19T12:48:30.072Z,1999.90
2023-03-19T12:51:06.852Z,1999.90
2023-03-19T12:53:44.002Z,1999.90
2023-03-19T12:56:18.788Z,1999.90
2023-03-19T12:58:54.774Z,1999.90
2023-03-19T13:01:28.528Z,1999.90
2023-03-19T13:04:03.325Z,1999.90
2023-03-19T13:06:38.183Z,1999.90
2023-03-19T13:09:13.482Z,1999.90
2023-03-19T13:11:47.798Z,1999.90
2023-03-19T13:14:23.622Z,1999.90
2023-03-19T13:17:00.525Z,1999.90
2023-03-19T13:19:35.682Z,1999.90
2023-03-19T13:22:08.078Z,1999.90
2023-03-19T13:24:38.481Z,1999.90
2023-03-19T13:27:13.039Z,1999.90
2023-03-19T13:30:02.025Z,1999.90
2023-03-19T13:32:38.997Z,1999.90
2023-03-19T13:35:36.316Z,1999.90
2023-03-19T13:38:08.876Z,1999.90
2023-03-19T13:40:41.245Z,1999.90
2023-03-19T13:43:37.984Z,1999.90
2023-03-19T13:46:28.882Z,1999.90
2023-03-19T13:49:10.132Z,1999.90
2023-03-19T13:51:38.216Z,1999.90
2023-03-19T13:54:08.450Z,1999.90
2023-03-19T13:57:05.760Z,1999.90
2023-03-19T13:59:34.603Z,1999.90
2023-03-19T14:02:03.613Z,1999.90
2023-03-19T14:04:34.178Z,1999.90
2023-03-19T14:07:13.353Z,1999.90
2023-03-19T14:09:43.713Z,1999.90
2023-03-19T14:12:21.177Z,1999.90
2023-03-19T14:14:53.238Z,1999.90
2023-03-19T14:17:25.239Z,1999.90
2023-03-19T14:19:55.472Z,1999.90
2023-03-19T14:22:35.270Z,1999.90
2023-03-19T14:25:18.011Z,1999.90
2023-03-19T14:27:48.457Z,1999.90
2023-03-19T14:30:28.417Z,1999.90
2023-03-19T14:32:58.743Z,1999.90
2023-03-19T14:35:28.775Z,1999.90
2023-03-19T14:37:57.793Z,1999.90
2023-03-19T14:40:28.068Z,1999.90
2023-03-19T14:43:05.145Z,1999.90
2023-03-19T14:45:56.261Z,1999.90
2023-03-19T14:48:52.088Z,1999.90
2023-03-19T14:51:37.666Z,1999.90
2023-03-19T14:54:13.314Z,1999.90
2023-03-19T14:56:41.898Z,1999.90
2023-03-19T14:59:15.188Z,1999.90
2023-03-19T15:01:49.498Z,1999.90
2023-03-19T15:04:18.145Z,1999.90
2023-03-19T15:06:53.598Z,1999.90
2023-03-19T15:09:26.912Z,1999.90
2023-03-19T15:12:21.252Z,1999.90
2023-03-19T15:15:09.304Z,1999.90
2023-03-19T15:17:38.872Z,1999.90
2023-03-19T15:20:18.402Z,1999.90
2023-03-19T15:22:55.472Z,1999.90
2023-03-19T15:25:23.672Z,1999.90
2023-03-19T15:28:08.055Z,1999.90
2023-03-19T15:30:50.543Z,1999.90
2023-03-19T15:33:39.016Z,1999.90
2023-03-19T15:36:13.464Z,1999.90
2023-03-19T15:38:47.105Z,1999.90
2023-03-19T15:41:15.868Z,1999.90
2023-03-19T15:43:44.890Z,1999.90
2023-03-19T15:46:16.001Z,1999.90
2023-03-19T15:48:49.437Z,1999.90
2023-03-19T15:51:20.474Z,1999.90
2023-03-19T15:53:50.163Z,1999.90
2023-03-19T15:56:20.264Z,1999.90
2023-03-19T15:58:53.297Z,1999.90
2023-03-19T16:01:22.497Z,1999.90
2023-03-19T16:03:56.128Z,1999.90
2023-03-19T16:06:27.244Z,1999.90
2023-03-19T16:09:07.253Z,1999.90
2023-03-19T16:11:37.258Z,1999.90
2023-03-19T16:14:11.881Z,1999.90
2023-03-19T16:16:42.235Z,1999.90
2023-03-19T16:19:29.456Z,1999.90
2023-03-19T16:21:57.904Z,1999.90
2023-03-19T16:24:31.103Z,1999.90
2023-03-19T16:26:59.613Z,1999.90
2023-03-19T16:29:29.008Z,1999.90
2023-03-19T16:32:02.375Z,1999.90
2023-03-19T16:34:42.199Z,1999.90
2023-03-19T16:37:28.102Z,1999.90
2023-03-19T16:39:59.258Z,1999.90
2023-03-19T16:42:31.374Z,1999.90
2023-03-19T16:45:03.231Z,1999.90
2023-03-19T16:47:31.260Z,1999.90
2023-03-19T16:49:59.184Z,1333.57
2023-03-19T16:52:27.220Z,1999.90
2023-03-19T16:54:57.499Z,1999.90
2023-03-19T16:57:25.562Z,1446.72
2023-03-19T16:59:53.596Z,1999.90
2023-03-19T17:02:21.596Z,1999.90
2023-03-19T17:04:49.768Z,1427.55
2023-03-19T17:07:17.836Z,380.60
2023-03-19T17:09:45.768Z,1999.90
2023-03-19T17:12:17.516Z,1999.90
2023-03-19T17:14:45.683Z,1999.90
2023-03-19T17:17:19.367Z,1999.90
2023-03-19T17:19:48.285Z,1999.90
2023-03-19T17:22:16.935Z,1999.90
2023-03-19T17:24:45.490Z,1999.90
2023-03-19T17:27:15.396Z,1999.90
2023-03-19T17:29:43.623Z,1999.90
2023-03-19T17:32:18.918Z,1999.90
2023-03-19T17:34:47.087Z,1836.43
2023-03-19T17:37:15.996Z,1406.43
2023-03-19T17:39:45.767Z,1999.90
2023-03-19T17:42:20.078Z,1999.90
2023-03-19T17:44:48.165Z,1999.90
2023-03-19T17:47:18.042Z,1999.90
2023-03-19T17:49:46.631Z,1609.03
2023-03-19T17:52:16.478Z,1952.57
2023-03-19T17:54:44.549Z,1005.70
2023-03-19T17:57:14.756Z,950.47
2023-03-19T17:59:44.078Z,1999.90
2023-03-19T18:02:25.988Z,1285.40
2023-03-19T18:04:54.274Z,771.07
2023-03-19T18:07:22.240Z,1939.53
2023-03-19T18:09:50.371Z,1837.83
2023-03-19T18:12:18.363Z,1101.53
2023-03-19T18:14:47.687Z,1999.90
2023-03-19T18:17:17.332Z,1142.97
2023-03-19T18:19:47.531Z,1637.37
2023-03-19T18:22:17.045Z,1999.90
2023-03-19T18:24:46.141Z,1999.90
2023-03-19T18:27:14.685Z,1254.20
2023-03-19T18:29:42.712Z,1239.97
2023-03-19T18:32:20.605Z,1166.40
2023-03-19T18:34:48.578Z,1572.93
2023-03-19T18:37:18.133Z,1990.17
2023-03-19T18:39:46.125Z,1417.47
2023-03-19T18:42:14.889Z,1156.80
2023-03-19T18:44:43.202Z,368.33
2023-03-19T18:47:15.870Z,1698.27
2023-03-19T18:49:44.734Z,1096.47
2023-03-19T18:52:18.684Z,1536.10
2023-03-19T18:54:47.192Z,679.27
2023-03-19T18:57:16.499Z,1999.90
2023-03-19T18:59:44.614Z,1095.30
2023-03-19T19:02:32.482Z,717.80
2023-03-19T19:05:00.728Z,1107.50
2023-03-19T19:07:28.804Z,181.17
2023-03-19T19:09:56.795Z,1377.03
2023-03-19T19:12:27.181Z,1498.70
2023-03-19T19:14:55.235Z,488.20
2023-03-19T19:17:29.122Z,250.53
2023-03-19T19:19:57.315Z,974.93
2023-03-19T19:22:25.301Z,337.03
2023-03-19T19:24:53.244Z,1539.97
2023-03-19T19:27:26.039Z,789.40
2023-03-19T19:29:54.220Z,1101.80
2023-03-19T19:32:25.791Z,1226.77
2023-03-19T19:34:54.106Z,381.07
2023-03-19T19:37:23.490Z,116.03
2023-03-19T19:39:51.859Z,778.03
2023-03-19T19:42:22.214Z,568.70
2023-03-19T19:44:53.697Z,907.50
2023-03-19T19:47:21.732Z,383.10
2023-03-19T19:49:51.043Z,1188.20
2023-03-19T19:52:20.750Z,601.67
2023-03-19T19:54:48.982Z,900.40
2023-03-19T19:57:19.630Z,1611.73
2023-03-19T19:59:47.906Z,710.60
2023-03-19T20:02:23.799Z,974.87
2023-03-19T20:04:53.451Z,590.20
2023-03-19T20:07:21.400Z,1273.50
2023-03-19T20:09:49.659Z,625.80
2023-03-19T20:12:22.437Z,949.63
2023-03-19T20:14:52.122Z,840.97
2023-03-19T20:17:21.962Z,514.87
2023-03-19T20:19:50.047Z,1668.27
2023-03-19T20:22:19.472Z,1041.83
2023-03-19T20:24:50.405Z,375.50
2023-03-19T20:27:22.350Z,777.03
2023-03-19T20:29:51.148Z,270.40
2023-03-19T20:32:29.433Z,692.57
2023-03-19T20:34:57.402Z,230.00
2023-03-19T20:37:26.847Z,470.40
2023-03-19T20:39:54.899Z,582.43
2023-03-19T20:42:23.446Z,1107.10
2023-03-19T20:44:56.511Z,1278.07
2023-03-19T20:47:25.739Z,1254.47
2023-03-19T20:49:54.301Z,1571.43
2023-03-19T20:52:22.362Z,310.33
2023-03-19T20:54:52.730Z,940.03
2023-03-19T20:57:26.630Z,596.03
2023-03-19T20:59:54.645Z,515.80
2023-03-19T21:02:24.546Z,359.20
2023-03-19T21:04:53.199Z,96.50
2023-03-19T21:07:29.221Z,1365.60
2023-03-19T21:09:59.330Z,1134.67
2023-03-19T21:12:30.256Z,1001.40
2023-03-19T21:14:58.785Z,1047.53
2023-03-19T21:17:27.399Z,745.87
2023-03-19T21:19:55.900Z,673.37
2023-03-19T21:22:27.035Z,767.67
2023-03-19T21:25:03.319Z,187.33
2023-03-19T21:27:32.662Z,218.83
2023-03-19T21:30:00.648Z,659.17
2023-03-19T21:32:28.642Z,1961.20
2023-03-19T21:34:56.642Z,1091.97
2023-03-19T21:37:24.621Z,267.50
2023-03-19T21:39:52.610Z,469.80
2023-03-19T21:42:23.492Z,587.30
2023-03-19T21:44:57.701Z,273.53
2023-03-19T21:47:25.885Z,468.53
2023-03-19T21:49:54.953Z,1150.23
2023-03-19T21:52:22.982Z,306.00
2023-03-19T21:54:50.936Z,701.77
2023-03-19T21:57:18.897Z,129.07
2023-03-19T21:59:48.584Z,1132.27
2023-03-19T22:02:40.567Z,1575.73
2023-03-19T22:05:21.477Z,823.80
2023-03-19T22:07:49.776Z,191.33
2023-03-19T22:10:18.531Z,35.53
2023-03-19T22:12:47.112Z,1723.07
2023-03-19T22:15:23.381Z,240.80
2023-03-19T22:17:51.399Z,531.73
2023-03-19T22:20:21.753Z,104.03
2023-03-19T22:22:49.869Z,870.37
2023-03-19T22:25:19.363Z,1090.57
2023-03-19T22:27:49.300Z,424.67
2023-03-19T22:30:27.059Z,633.70
2023-03-19T22:32:57.117Z,143.80
2023-03-19T22:35:25.546Z,173.20
2023-03-19T22:37:53.475Z,78.37
2023-03-19T22:40:21.991Z,700.37
2023-03-19T22:42:50.744Z,87.87
2023-03-19T22:45:24.683Z,368.87
2023-03-19T22:47:53.067Z,134.10
2023-03-19T22:50:23.681Z,501.50
2023-03-19T22:52:51.837Z,186.63
2023-03-19T22:55:20.480Z,1185.47
2023-03-19T22:57:48.750Z,544.13
2023-03-19T23:00:19.370Z,731.17
2023-03-19T23:02:54.641Z,799.40
2023-03-19T23:05:27.851Z,208.07
2023-03-19T23:07:56.442Z,1000.50
2023-03-19T23:10:26.805Z,416.20
2023-03-19T23:12:55.839Z,362.83
2023-03-19T23:15:26.774Z,1488.00
2023-03-19T23:17:58.992Z,440.47
2023-03-19T23:20:28.828Z,1165.33
2023-03-19T23:22:57.640Z,965.53
2023-03-19T23:25:28.482Z,644.77
2023-03-19T23:27:59.757Z,362.17
2023-03-19T23:30:30.311Z,1838.87
2023-03-19T23:33:01.553Z,1113.10
2023-03-19T23:35:32.341Z,626.43
2023-03-19T23:38:01.702Z,1017.70
2023-03-19T23:40:33.177Z,1416.30
2023-03-19T23:43:02.502Z,464.60
2023-03-19T23:45:34.733Z,1744.93
2023-03-19T23:48:07.275Z,207.70
2023-03-19T23:50:35.601Z,243.60
2023-03-19T23:53:03.775Z,125.83
2023-03-19T23:55:32.869Z,29.40
2023-03-19T23:58:02.398Z,1001.90
